Time;durP1;ratioP1;P1;durP2;ratioP2;P2;SDS_P1;SDS_P2;PMS_P1;PMS_P2;Temp;Humidity;BMP_temperature;BMP_pressure;BME280_temperature;BME280_humidity;BME280_pressure;Samples;Min_cycle;Max_cycle;Signal;HPM_P1;HPM_P2
2022/02/04 00:05:35;;;;;;;10.90;9.43;;;7.70;99.90;;;;;;5051711;28;20444;-64
2022/02/04 00:08:06;;;;;;;10.10;9.00;;;7.70;99.90;;;;;;5051146;28;20448;-63
2022/02/04 00:22:09;;;;;;;9.83;8.83;;;7.60;99.90;;;;;;5008817;28;21021;-63
2022/02/04 00:24:36;;;;;;;10.57;8.33;;;7.70;99.90;;;;;;5008297;28;21010;-64
2022/02/04 00:27:08;;;;;;;7.97;7.13;;;7.60;99.90;;;;;;5033829;28;21051;-64
2022/02/04 00:29:44;;;;;;;10.83;8.43;;;7.60;99.90;;;;;;5050930;28;20510;-63
2022/02/04 00:32:12;;;;;;;7.70;6.57;;;7.60;99.90;;;;;;5051307;28;20488;-63
2022/02/04 00:34:45;;;;;;;9.23;7.40;;;7.60;99.90;;;;;;5050927;28;20551;-62
2022/02/04 00:37:23;;;;;;;8.93;7.83;;;7.60;99.90;;;;;;5051435;28;20847;-63
2022/02/04 00:39:56;;;;;;;10.87;8.63;;;7.50;99.90;;;;;;5050881;28;20447;-63
2022/02/04 00:42:22;;;;;;;8.73;7.30;;;7.50;99.90;;;;;;5051291;28;20525;-63
2022/02/04 00:44:57;;;;;;;8.70;7.20;;;7.50;99.90;;;;;;5050729;28;20466;-63
2022/02/04 00:47:28;;;;;;;9.87;7.80;;;7.50;99.90;;;;;;5051105;28;20455;-63
2022/02/04 00:50:02;;;;;;;9.27;7.10;;;7.50;99.90;;;;;;5050325;28;20574;-63
2022/02/04 00:52:38;;;;;;;10.13;7.30;;;7.50;99.90;;;;;;5050548;28;20524;-63
2022/02/04 00:55:20;;;;;;;9.63;7.50;;;7.50;99.90;;;;;;5050389;28;20451;-63
2022/02/04 00:57:53;;;;;;;8.50;7.60;;;7.50;99.90;;;;;;5050959;28;20491;-63
2022/02/04 01:27:54;;;;;;;6.93;6.20;;;7.30;99.90;;;;;;5049827;28;20466;-66
2022/02/04 01:30:31;;;;;;;8.70;6.87;;;7.40;99.90;;;;;;5049523;28;20459;-63
2022/02/04 01:32:58;;;;;;;8.50;7.10;;;7.40;99.90;;;;;;5049524;28;20451;-64
2022/02/04 01:35:26;;;;;;;9.90;6.60;;;7.40;99.90;;;;;;5050139;28;20455;-64
2022/02/04 01:37:53;;;;;;;7.43;6.20;;;7.40;99.90;;;;;;5049975;28;20444;-63
2022/02/04 01:40:20;;;;;;;8.50;7.03;;;7.40;99.90;;;;;;5049028;28;20448;-63
2022/02/04 01:42:46;;;;;;;7.37;6.03;;;7.40;99.90;;;;;;5049899;28;20447;-63
2022/02/04 01:45:13;;;;;;;7.87;6.33;;;7.40;99.90;;;;;;5050002;28;20443;-64
2022/02/04 01:50:21;;;;;;;7.87;6.10;;;7.40;99.90;;;;;;5049015;28;20428;-64
2022/02/04 01:52:49;;;;;;;7.70;6.00;;;7.40;99.90;;;;;;5049642;28;20443;-65
2022/02/04 01:55:17;;;;;;;9.37;6.03;;;7.30;99.90;;;;;;5049630;28;20440;-66
2022/02/04 01:57:44;;;;;;;7.83;5.90;;;7.30;99.90;;;;;;5049894;28;20432;-64
2022/02/04 02:00:12;;;;;;;8.40;6.43;;;7.30;99.90;;;;;;5049520;28;20519;-65
2022/02/04 02:02:39;;;;;;;7.77;5.47;;;7.30;99.90;;;;;;5049778;28;20432;-65
2022/02/04 02:05:07;;;;;;;7.03;5.77;;;7.30;99.90;;;;;;5049848;28;20435;-63
2022/02/04 02:07:40;;;;;;;6.87;5.50;;;7.30;99.90;;;;;;5049903;28;20444;-64
2022/02/04 02:10:12;;;;;;;7.23;5.37;;;7.30;99.90;;;;;;5049373;28;20440;-64
2022/02/04 02:12:48;;;;;;;8.63;5.77;;;7.20;99.90;;;;;;5049492;28;20836;-64
2022/02/04 02:15:21;;;;;;;6.67;5.33;;;7.20;99.90;;;;;;5049742;28;20436;-64
2022/02/04 02:34:55;;;;;;;6.70;5.70;;;6.90;99.90;;;;;;5049411;28;20435;-64
2022/02/04 02:45:48;;;;;;;7.30;6.20;;;6.90;99.90;;;;;;5049121;28;20799;-65
2022/02/04 02:48:32;;;;;;;6.87;5.43;;;6.80;99.90;;;;;;5049261;28;20472;-65
2022/02/04 02:51:28;;;;;;;7.60;5.93;;;6.80;99.90;;;;;;5049587;28;20478;-65
2022/02/04 02:54:06;;;;;;;7.50;6.30;;;6.80;99.90;;;;;;5052602;28;20456;-65
2022/02/04 02:59:22;;;;;;;8.97;6.43;;;6.80;99.90;;;;;;5052684;28;20517;-64
2022/02/04 03:01:50;;;;;;;7.50;5.70;;;6.80;99.90;;;;;;5053287;28;20768;-64
2022/02/04 03:04:17;;;;;;;7.10;5.40;;;6.70;99.90;;;;;;5052728;28;20463;-65
2022/02/04 03:06:45;;;;;;;8.17;5.93;;;6.70;99.90;;;;;;5052702;28;20492;-64
2022/02/04 03:09:12;;;;;;;8.23;6.10;;;6.70;99.90;;;;;;5052489;28;20448;-64
2022/02/04 03:11:41;;;;;;;7.67;6.10;;;6.80;99.90;;;;;;5052693;28;20483;-64
2022/02/04 03:14:08;;;;;;;7.50;6.10;;;6.80;99.90;;;;;;5052331;28;20995;-64
2022/02/04 03:16:37;;;;;;;8.20;7.10;;;6.80;99.90;;;;;;5052480;28;20806;-67
2022/02/04 03:19:06;;;;;;;8.03;7.17;;;6.70;99.90;;;;;;5052406;28;21109;-64
2022/02/04 03:21:36;;;;;;;8.37;6.30;;;6.60;99.90;;;;;;5052759;28;20527;-65
2022/02/04 03:24:08;;;;;;;7.90;6.20;;;6.70;99.90;;;;;;5052803;28;20471;-64
2022/02/04 03:26:44;;;;;;;7.80;6.03;;;6.60;99.90;;;;;;5052675;28;20496;-64
2022/02/04 03:29:15;;;;;;;10.00;6.73;;;6.70;99.90;;;;;;5052496;28;20463;-65
2022/02/04 03:31:47;;;;;;;9.70;6.63;;;6.60;99.90;;;;;;5052323;28;20487;-64
2022/02/04 03:34:13;;;;;;;8.60;6.57;;;6.60;99.90;;;;;;5052565;28;20521;-65
2022/02/04 03:36:41;;;;;;;9.03;6.47;;;6.70;99.90;;;;;;5052422;28;20502;-64
2022/02/04 03:39:08;;;;;;;9.57;6.23;;;6.70;99.90;;;;;;5052545;28;20443;-64
2022/02/04 03:41:35;;;;;;;11.07;6.87;;;6.70;99.90;;;;;;5052543;28;21030;-64
2022/02/04 03:44:02;;;;;;;10.57;7.97;;;6.70;99.90;;;;;;5052464;28;20908;-64
2022/02/04 03:46:30;;;;;;;10.60;6.67;;;6.70;99.90;;;;;;5052429;28;20440;-64
2022/02/04 03:48:57;;;;;;;8.30;6.77;;;6.70;99.90;;;;;;5052266;28;20444;-64
2022/02/04 03:51:24;;;;;;;8.20;6.83;;;6.70;99.90;;;;;;5051816;28;20486;-64
2022/02/04 03:53:50;;;;;;;8.50;6.43;;;6.70;99.90;;;;;;5051837;28;20472;-64
2022/02/04 03:56:19;;;;;;;10.43;7.37;;;6.70;99.90;;;;;;5051957;28;20452;-64
2022/02/04 03:58:46;;;;;;;8.20;6.43;;;6.70;99.90;;;;;;5051589;28;20949;-65
2022/02/04 04:01:13;;;;;;;8.00;6.27;;;6.70;99.90;;;;;;5051645;28;20792;-64
2022/02/04 04:03:41;;;;;;;10.10;7.17;;;6.70;99.90;;;;;;5051500;28;20464;-65
2022/02/04 04:06:09;;;;;;;8.73;6.90;;;6.70;99.90;;;;;;5052153;28;20823;-64
2022/02/04 04:08:36;;;;;;;10.70;7.07;;;6.70;99.90;;;;;;5051738;28;20452;-64
2022/02/04 04:11:03;;;;;;;8.40;6.53;;;6.80;99.90;;;;;;5051635;28;20493;-64
2022/02/04 04:13:29;;;;;;;9.70;7.63;;;6.70;99.90;;;;;;5051569;28;20460;-64
2022/02/04 04:15:56;;;;;;;10.13;6.97;;;6.70;99.90;;;;;;5051505;28;20530;-64
2022/02/04 04:18:23;;;;;;;8.13;7.17;;;6.70;99.90;;;;;;5051743;28;20442;-64
2022/02/04 04:20:51;;;;;;;9.17;7.00;;;6.80;99.90;;;;;;5051134;28;20463;-65
2022/02/04 04:23:18;;;;;;;8.63;7.03;;;6.80;99.90;;;;;;5051608;28;20460;-64
2022/02/04 04:25:45;;;;;;;9.80;6.70;;;6.70;99.90;;;;;;5051724;28;20447;-64
2022/02/04 04:28:12;;;;;;;10.20;7.60;;;6.70;99.90;;;;;;5051552;28;21149;-65
2022/02/04 04:30:39;;;;;;;7.53;5.93;;;6.70;99.90;;;;;;5051256;28;20539;-64
2022/02/04 04:33:06;;;;;;;7.97;6.20;;;6.70;99.90;;;;;;5051454;28;20498;-64
2022/02/04 04:35:33;;;;;;;9.17;6.80;;;6.70;99.90;;;;;;5051420;28;20452;-63
2022/02/04 04:38:08;;;;;;;8.27;6.37;;;6.70;99.90;;;;;;5051141;28;20815;-64
2022/02/04 04:40:48;;;;;;;12.50;6.80;;;6.70;99.90;;;;;;5050922;28;20886;-64
2022/02/04 04:43:28;;;;;;;9.43;6.63;;;6.70;99.90;;;;;;5050616;28;20570;-64
2022/02/04 05:29:41;;;;;;;10.77;8.27;;;6.60;99.90;;;;;;5024808;28;20453;-64
2022/02/04 05:32:08;;;;;;;11.10;8.00;;;6.60;99.90;;;;;;5029969;28;20476;-64
2022/02/04 05:34:35;;;;;;;9.37;7.53;;;6.60;99.90;;;;;;5030026;28;20476;-64
2022/02/04 05:37:05;;;;;;;9.53;7.53;;;6.60;99.90;;;;;;5030236;28;20483;-64
2022/02/04 05:39:37;;;;;;;10.90;8.63;;;6.60;99.90;;;;;;5030131;28;20544;-66
2022/02/04 05:42:08;;;;;;;10.80;7.77;;;6.60;99.90;;;;;;5029862;28;20432;-67
2022/02/04 05:44:39;;;;;;;9.77;8.40;;;6.60;99.90;;;;;;5030169;28;21178;-64
2022/02/04 05:47:13;;;;;;;9.70;7.40;;;6.60;99.90;;;;;;5029915;28;20491;-64
2022/02/04 05:49:47;;;;;;;8.20;6.73;;;6.50;99.90;;;;;;5030029;28;20548;-64
2022/02/04 05:52:21;;;;;;;9.10;8.00;;;6.60;99.90;;;;;;5030319;28;20525;-64
2022/02/04 05:55:01;;;;;;;10.10;7.77;;;6.60;99.90;;;;;;5030046;28;20457;-64
2022/02/04 05:57:45;;;;;;;10.07;8.20;;;6.50;99.90;;;;;;5046807;28;20448;-65
2022/02/04 06:00:24;;;;;;;12.20;7.90;;;6.50;99.90;;;;;;5048430;28;20502;-63
2022/02/04 06:03:09;;;;;;;10.37;8.50;;;6.50;99.90;;;;;;5049066;28;20452;-63
2022/02/04 06:05:53;;;;;;;8.50;6.97;;;6.50;99.90;;;;;;5049801;28;20448;-63
2022/02/04 06:08:40;;;;;;;10.33;8.13;;;6.40;99.90;;;;;;5049634;28;20475;-64
2022/02/04 06:11:32;;;;;;;11.37;7.00;;;6.50;99.90;;;;;;5049505;28;20448;-63
2022/02/04 06:14:27;;;;;;;8.13;6.43;;;6.40;99.90;;;;;;5049343;28;20899;-61
2022/02/04 06:22:24;;;;;;;10.10;8.00;;;6.40;99.90;;;;;;5048101;28;20444;-62
2022/02/04 06:24:53;;;;;;;5.80;4.40;;;6.40;99.90;;;;;;5047935;28;20483;-62
2022/02/04 06:27:22;;;;;;;6.60;5.03;;;6.40;99.90;;;;;;5047751;28;20452;-62
2022/02/04 06:29:51;;;;;;;9.87;7.90;;;6.30;99.90;;;;;;5047307;28;20462;-62
2022/02/04 06:32:18;;;;;;;10.43;8.10;;;6.30;99.90;;;;;;5048640;28;20479;-63
2022/02/04 06:34:46;;;;;;;11.07;8.73;;;6.30;99.90;;;;;;5049135;28;20928;-63
2022/02/04 06:37:13;;;;;;;10.60;8.43;;;6.30;99.90;;;;;;5049053;28;21041;-63
2022/02/04 06:39:40;;;;;;;10.60;8.83;;;6.30;99.90;;;;;;5048940;28;20582;-63
2022/02/04 06:42:07;;;;;;;10.77;9.10;;;6.20;99.90;;;;;;5049353;28;20448;-63
2022/02/04 06:44:35;;;;;;;9.53;7.73;;;6.10;99.90;;;;;;5049499;28;20559;-63
2022/02/04 06:47:05;;;;;;;11.03;8.37;;;6.10;99.90;;;;;;5049033;28;20506;-62
2022/02/04 06:49:32;;;;;;;9.23;7.53;;;6.10;99.90;;;;;;5048673;28;20839;-63
2022/02/04 06:51:59;;;;;;;9.50;7.77;;;6.10;99.90;;;;;;5049173;28;20582;-62
2022/02/04 06:54:25;;;;;;;10.13;8.13;;;6.10;99.90;;;;;;5048699;28;20468;-61
2022/02/04 06:56:54;;;;;;;9.53;7.77;;;6.10;99.90;;;;;;5048629;28;20985;-62
2022/02/04 06:59:21;;;;;;;10.10;7.93;;;6.10;99.90;;;;;;5048358;28;20520;-62
2022/02/04 07:01:48;;;;;;;9.73;6.83;;;6.00;99.90;;;;;;5048522;28;20443;-63
2022/02/04 07:04:16;;;;;;;7.53;5.50;;;6.00;99.90;;;;;;5048479;28;20547;-63
2022/02/04 07:06:51;;;;;;;7.53;6.17;;;6.10;99.90;;;;;;5048256;28;20523;-63
2022/02/04 07:09:25;;;;;;;6.77;5.70;;;6.10;99.90;;;;;;5048302;28;20452;-63
2022/02/04 07:12:16;;;;;;;6.90;5.43;;;6.10;99.90;;;;;;5048454;28;20486;-63
2022/02/04 07:15:01;;;;;;;6.60;5.90;;;6.20;99.90;;;;;;5043378;28;21040;-63
2022/02/04 07:17:36;;;;;;;13.37;6.90;;;6.20;99.90;;;;;;5045507;28;20479;-63
2022/02/04 07:20:04;;;;;;;8.90;7.10;;;6.20;99.90;;;;;;5047122;28;20449;-63
2022/02/04 07:22:34;;;;;;;10.90;8.07;;;6.20;99.90;;;;;;5047488;28;20506;-63
2022/02/04 07:25:04;;;;;;;13.80;9.00;;;6.20;99.90;;;;;;5047341;28;20471;-63
2022/02/04 07:27:32;;;;;;;12.83;9.77;;;6.10;99.90;;;;;;5047385;28;20452;-62
2022/02/04 07:29:59;;;;;;;12.60;9.97;;;6.10;99.90;;;;;;5047068;28;20487;-63
2022/02/04 07:32:32;;;;;;;11.10;9.40;;;6.20;99.90;;;;;;5047276;28;21071;-63
2022/02/04 07:35:18;;;;;;;17.50;11.40;;;6.20;99.90;;;;;;5047532;28;20475;-63
2022/02/04 07:43:16;;;;;;;15.33;10.73;;;6.40;99.90;;;;;;5050873;28;20493;-62
2022/02/04 07:45:43;;;;;;;12.47;10.30;;;6.30;99.90;;;;;;5050484;28;20456;-62
2022/02/04 07:48:10;;;;;;;13.60;10.40;;;6.40;99.90;;;;;;5051054;28;20815;-64
2022/02/04 07:50:37;;;;;;;13.60;9.60;;;6.40;99.90;;;;;;5050746;28;20463;-63
2022/02/04 07:53:05;;;;;;;16.00;10.37;;;6.40;99.90;;;;;;5050837;28;20499;-62
2022/02/04 07:55:32;;;;;;;11.50;9.73;;;6.50;99.90;;;;;;5051069;28;20542;-63
2022/02/04 07:57:59;;;;;;;11.70;10.40;;;6.50;99.90;;;;;;5050548;28;20556;-63
2022/02/04 08:00:27;;;;;;;10.30;8.40;;;6.40;99.90;;;;;;5050106;28;20452;-63
2022/02/04 08:02:54;;;;;;;11.13;9.33;;;6.30;99.90;;;;;;5051195;28;20552;-63
2022/02/04 08:05:26;;;;;;;10.07;8.50;;;6.30;99.90;;;;;;5051627;28;20583;-62
2022/02/04 08:07:58;;;;;;;12.23;9.33;;;6.20;99.90;;;;;;5052008;28;20506;-63
2022/02/04 08:10:31;;;;;;;10.90;8.83;;;6.10;99.90;;;;;;5051521;28;20448;-62
2022/02/04 08:13:23;;;;;;;10.90;9.77;;;6.00;99.90;;;;;;5051520;28;20574;-63
2022/02/04 08:16:18;;;;;;;12.83;9.20;;;6.10;99.90;;;;;;5051612;28;20545;-63
2022/02/04 08:19:14;;;;;;;11.60;8.90;;;6.20;99.90;;;;;;5051482;28;20469;-63
2022/02/04 08:22:08;;;;;;;11.83;9.50;;;6.40;99.90;;;;;;5051366;28;20510;-63
2022/02/04 08:30:26;;;;;;;9.90;8.27;;;6.60;99.90;;;;;;5050980;28;20811;-63
2022/02/04 08:33:07;;;;;;;10.63;9.17;;;6.70;99.90;;;;;;5051485;28;20480;-62
2022/02/04 08:36:05;;;;;;;10.30;8.53;;;6.70;99.90;;;;;;5051021;28;20459;-63
2022/02/04 08:49:59;;;;;;;10.37;7.97;;;7.20;99.90;;;;;;5044597;28;20444;-64
2022/02/04 08:52:42;;;;;;;11.03;7.90;;;7.00;99.90;;;;;;5050774;28;20483;-63
2022/02/04 08:55:12;;;;;;;9.53;8.30;;;7.00;99.90;;;;;;5051110;28;20448;-63
2022/02/04 08:57:46;;;;;;;9.60;7.20;;;7.20;99.90;;;;;;5051072;28;20452;-64
2022/02/04 09:00:23;;;;;;;8.97;7.33;;;7.30;99.90;;;;;;5050455;28;20546;-63
2022/02/04 09:02:56;;;;;;;10.60;7.90;;;7.50;99.90;;;;;;5050658;28;20455;-64
2022/02/04 09:05:30;;;;;;;9.20;7.23;;;7.60;99.90;;;;;;5050999;28;20467;-64
2022/02/04 09:08:14;;;;;;;12.20;6.90;;;7.90;99.90;;;;;;5050799;28;20450;-64
2022/02/04 09:10:42;;;;;;;12.00;7.00;;;8.20;99.90;;;;;;5050286;28;21015;-64
2022/02/04 09:18:57;;;;;;;4.33;3.50;;;9.20;99.90;;;;;;5050254;28;20505;-64
2022/02/04 09:24:19;;;;;;;5.33;3.90;;;9.10;99.90;;;;;;5036564;28;20539;-64
2022/02/04 09:26:46;;;;;;;4.07;3.10;;;9.00;99.90;;;;;;5049885;28;20450;-64
2022/02/04 09:29:13;;;;;;;4.13;3.40;;;8.90;99.90;;;;;;5049828;28;20933;-65
2022/02/04 09:31:41;;;;;;;5.90;3.20;;;8.90;99.90;;;;;;5050057;28;20890;-64
2022/02/04 09:34:09;;;;;;;5.00;3.67;;;8.90;99.90;;;;;;5049579;28;21001;-64
2022/02/04 09:36:36;;;;;;;4.20;3.30;;;8.90;99.90;;;;;;5050053;28;20479;-64
2022/02/04 09:39:05;;;;;;;4.53;3.53;;;8.80;99.90;;;;;;5049831;28;20538;-64
2022/02/04 09:41:33;;;;;;;7.27;3.60;;;8.80;99.90;;;;;;5049615;28;20475;-64
2022/02/04 09:44:00;;;;;;;5.00;3.67;;;9.00;99.90;;;;;;5049627;28;20847;-64
2022/02/04 09:46:29;;;;;;;3.97;3.50;;;9.40;99.90;;;;;;5049550;28;20444;-64
2022/02/04 09:48:58;;;;;;;6.93;4.37;;;10.00;99.90;;;;;;5049664;28;20590;-63
2022/02/04 09:51:34;;;;;;;5.70;4.10;;;10.50;99.90;;;;;;5049445;28;20451;-64
2022/02/04 10:08:02;;;;;;;4.53;3.10;;;10.50;99.90;;;;;;5049314;28;20432;-63
2022/02/04 10:10:55;;;;;;;6.30;3.30;;;10.30;99.90;;;;;;5049176;28;20448;-63
2022/02/04 10:16:37;;;;;;;4.27;2.93;;;9.90;99.90;;;;;;5049373;28;20420;-63
2022/02/04 10:19:14;;;;;;;4.07;1.87;;;9.80;99.90;;;;;;5048987;28;20475;-63
2022/02/04 10:21:42;;;;;;;3.40;2.00;;;9.80;99.90;;;;;;5049101;28;20518;-64
2022/02/04 10:24:10;;;;;;;2.93;1.93;;;10.00;99.90;;;;;;5048964;28;20459;-63
2022/02/04 10:26:37;;;;;;;4.23;1.87;;;10.00;99.90;;;;;;5049177;28;20444;-63
2022/02/04 10:29:04;;;;;;;2.50;1.80;;;10.00;99.90;;;;;;5048644;28;20547;-63
2022/02/04 10:31:31;;;;;;;3.13;1.90;;;10.00;99.90;;;;;;5048845;28;20454;-64
2022/02/04 10:34:04;;;;;;;3.57;2.80;;;10.10;99.90;;;;;;5048651;28;20488;-63
2022/02/04 10:36:36;;;;;;;3.00;2.30;;;10.10;99.90;;;;;;5048828;28;20505;-64
2022/02/04 10:39:35;;;;;;;3.00;2.03;;;10.10;99.90;;;;;;5048958;28;20459;-64
2022/02/04 10:42:08;;;;;;;3.37;2.27;;;10.10;99.90;;;;;;5048776;28;20947;-64
2022/02/04 10:44:47;;;;;;;4.20;2.80;;;10.10;99.90;;;;;;5048510;28;20479;-63
2022/02/04 10:47:32;;;;;;;3.50;2.70;;;10.00;99.90;;;;;;5035110;28;20464;-63
2022/02/04 10:50:07;;;;;;;3.27;2.30;;;9.90;99.90;;;;;;5044342;28;20450;-62
2022/02/04 10:52:54;;;;;;;4.30;2.47;;;9.70;99.90;;;;;;5046723;28;20443;-62
2022/02/04 10:56:03;;;;;;;2.97;2.10;;;9.60;99.90;;;;;;5046566;28;20450;-62
2022/02/04 10:58:56;;;;;;;2.50;1.60;;;9.30;99.90;;;;;;5046510;28;20448;-62
2022/02/04 11:01:34;;;;;;;2.87;1.80;;;9.30;99.90;;;;;;5046286;28;20444;-63
2022/02/04 11:04:08;;;;;;;2.73;1.50;;;9.30;99.90;;;;;;5046601;28;20877;-63
2022/02/04 11:06:51;;;;;;;3.03;1.50;;;9.30;99.90;;;;;;5045915;28;21015;-63
2022/02/04 11:09:30;;;;;;;2.50;1.47;;;9.40;99.90;;;;;;5046245;28;20448;-63
2022/02/04 11:21:39;;;;;;;3.10;1.80;;;9.40;99.90;;;;;;5046962;28;20440;-63
2022/02/04 11:35:16;;;;;;;2.47;1.53;;;9.30;99.90;;;;;;5034825;28;20501;-64
2022/02/04 11:44:01;;;;;;;3.03;1.90;;;9.40;99.90;;;;;;5050438;28;20469;-63
2022/02/04 11:52:34;;;;;;;2.43;1.30;;;9.60;99.90;;;;;;5049899;28;20508;-65
2022/02/04 11:55:22;;;;;;;2.23;1.30;;;9.50;99.90;;;;;;5049708;28;21298;-64
2022/02/04 11:57:55;;;;;;;2.70;1.60;;;9.40;99.90;;;;;;5049921;28;20460;-64
2022/02/04 12:00:25;;;;;;;3.07;1.50;;;9.20;99.90;;;;;;5049752;28;20439;-64
2022/02/04 12:02:55;;;;;;;3.10;1.50;;;9.20;99.90;;;;;;5049773;28;20440;-64
2022/02/04 12:05:32;;;;;;;2.50;1.60;;;9.10;99.90;;;;;;5049982;28;20448;-64
2022/02/04 12:08:30;;;;;;;3.47;1.50;;;9.00;99.90;;;;;;5050177;28;20454;-64
2022/02/04 12:11:19;;;;;;;2.53;1.43;;;8.90;99.90;;;;;;5048317;28;20450;-63
2022/02/04 12:14:10;;;;;;;3.37;1.50;;;8.90;99.90;;;;;;5029985;28;20912;-64
2022/02/04 12:16:57;;;;;;;2.67;1.50;;;9.00;99.90;;;;;;5029504;28;20485;-64
2022/02/04 12:19:36;;;;;;;3.20;1.40;;;9.00;99.90;;;;;;5030005;28;20556;-64
2022/02/04 12:22:03;;;;;;;3.70;1.50;;;9.10;99.90;;;;;;5030337;28;20444;-63
2022/02/04 12:24:47;;;;;;;2.20;1.27;;;9.10;99.90;;;;;;5029694;28;20476;-64
2022/02/04 12:27:53;;;;;;;4.87;1.40;;;9.20;99.90;;;;;;5030237;28;20532;-65
2022/02/04 12:30:46;;;;;;;1.93;1.43;;;9.30;99.90;;;;;;5009354;28;20460;-65
2022/02/04 12:33:15;;;;;;;4.03;2.00;;;9.40;99.90;;;;;;5030024;28;20469;-64
2022/02/04 12:35:43;;;;;;;3.00;1.10;;;9.40;99.90;;;;;;5030514;28;20441;-67
2022/02/04 12:38:10;;;;;;;2.80;1.53;;;9.40;99.90;;;;;;5030076;28;20445;-63
2022/02/04 12:40:37;;;;;;;2.20;1.20;;;9.30;99.90;;;;;;5030786;28;20835;-62
2022/02/04 12:43:04;;;;;;;2.00;1.10;;;9.20;99.90;;;;;;5031367;28;20461;-63
2022/02/04 12:45:31;;;;;;;2.40;1.40;;;9.30;99.90;;;;;;5032183;28;20449;-64
2022/02/04 12:48:08;;;;;;;1.97;1.20;;;9.40;99.90;;;;;;5030746;28;20499;-66
2022/02/04 12:50:37;;;;;;;2.53;1.10;;;9.50;99.90;;;;;;5030454;28;20973;-63
2022/02/04 12:53:07;;;;;;;2.03;0.90;;;9.50;99.90;;;;;;5030529;28;20476;-63
2022/02/04 12:55:48;;;;;;;2.87;1.70;;;9.50;99.90;;;;;;5030641;28;20931;-64
2022/02/04 12:58:36;;;;;;;2.50;1.53;;;9.50;99.90;;;;;;5029959;28;20981;-64
2022/02/04 13:12:08;;;;;;;2.93;1.40;;;9.50;99.90;;;;;;5026022;28;20864;-64
2022/02/04 13:14:35;;;;;;;2.13;1.20;;;9.60;99.90;;;;;;5034531;28;20572;-64
2022/02/04 13:17:02;;;;;;;2.70;1.40;;;9.40;99.90;;;;;;5049869;28;20542;-64
2022/02/04 13:19:29;;;;;;;3.00;1.43;;;9.30;99.90;;;;;;5049347;28;20461;-64
2022/02/04 13:21:56;;;;;;;4.17;1.47;;;9.30;99.90;;;;;;5041225;28;20912;-63
2022/02/04 13:24:24;;;;;;;2.40;1.63;;;9.20;99.90;;;;;;5043690;28;21020;-63
2022/02/04 13:26:51;;;;;;;2.17;1.60;;;9.20;99.90;;;;;;5040880;28;20443;-64
2022/02/04 13:29:25;;;;;;;2.97;1.83;;;9.20;99.90;;;;;;5042332;28;20444;-63
2022/02/04 13:31:52;;;;;;;2.23;1.40;;;9.10;99.90;;;;;;5042579;28;20491;-63
2022/02/04 13:34:25;;;;;;;2.97;1.50;;;9.00;99.90;;;;;;5040939;28;20564;-62
2022/02/04 13:36:55;;;;;;;2.50;1.63;;;8.90;99.90;;;;;;5041465;28;20472;-63
2022/02/04 13:39:32;;;;;;;2.23;1.33;;;8.80;99.90;;;;;;5041054;28;20471;-64
2022/02/04 13:42:10;;;;;;;3.90;1.20;;;8.70;99.90;;;;;;5042142;28;20439;-64
2022/02/04 13:44:42;;;;;;;2.50;1.50;;;8.70;99.90;;;;;;5043785;28;21024;-64
2022/02/04 13:47:20;;;;;;;3.37;1.60;;;8.70;99.90;;;;;;5038860;28;20536;-64
2022/02/04 13:50:13;;;;;;;2.47;1.50;;;8.70;99.90;;;;;;5041932;28;21004;-64
2022/02/04 13:55:40;;;;;;;2.30;1.40;;;8.80;99.90;;;;;;5042331;28;20887;-63
2022/02/04 13:58:25;;;;;;;3.07;1.50;;;8.80;99.90;;;;;;5044466;28;20474;-63
2022/02/04 14:01:01;;;;;;;2.60;1.30;;;8.80;99.90;;;;;;5047915;28;20479;-63
2022/02/04 14:03:31;;;;;;;3.50;1.40;;;8.80;99.90;;;;;;5048223;28;20479;-63
2022/02/04 14:06:02;;;;;;;2.93;1.20;;;8.90;99.90;;;;;;5048908;28;20447;-63
2022/02/04 14:08:34;;;;;;;2.80;1.77;;;8.80;99.90;;;;;;5051249;28;20498;-63
2022/02/04 14:11:05;;;;;;;1.90;1.20;;;8.80;99.90;;;;;;5047663;28;20893;-63
2022/02/04 14:13:33;;;;;;;2.70;1.40;;;8.80;99.90;;;;;;5048134;28;20470;-63
2022/02/04 14:16:05;;;;;;;2.07;1.00;;;8.80;99.90;;;;;;5048105;28;20445;-63
2022/02/04 14:18:33;;;;;;;2.80;1.20;;;8.70;99.90;;;;;;5047976;28;20448;-63
2022/02/04 14:20:59;;;;;;;2.20;1.30;;;8.70;99.90;;;;;;5047699;28;20447;-63
2022/02/04 14:23:27;;;;;;;2.43;1.27;;;8.70;99.90;;;;;;5045983;28;20547;-62
2022/02/04 14:26:00;;;;;;;2.27;1.30;;;8.70;99.90;;;;;;5046103;28;20531;-63
2022/02/04 14:28:41;;;;;;;2.00;1.23;;;8.70;99.90;;;;;;5046877;28;20539;-63
2022/02/04 14:31:15;;;;;;;2.70;1.43;;;8.70;99.90;;;;;;5032180;28;20530;-63
2022/02/04 14:53:43;;;;;;;2.20;0.90;;;8.60;99.90;;;;;;5051063;28;20456;-64
2022/02/04 15:01:48;;;;;;;3.47;1.10;;;8.60;99.90;;;;;;5052147;28;20433;-62
2022/02/04 15:04:24;;;;;;;3.00;1.20;;;8.50;99.90;;;;;;5052201;28;20466;-62
2022/02/04 15:06:58;;;;;;;1.77;0.80;;;8.50;99.90;;;;;;5052813;28;20455;-63
2022/02/04 15:09:25;;;;;;;2.13;1.00;;;8.50;99.90;;;;;;5052026;28;20521;-63
2022/02/04 15:11:52;;;;;;;2.77;1.00;;;8.50;99.90;;;;;;5052573;28;20451;-62
2022/02/04 15:14:19;;;;;;;2.77;1.20;;;8.40;99.90;;;;;;5052106;28;20486;-63
2022/02/04 15:16:47;;;;;;;2.50;1.33;;;8.40;99.90;;;;;;5052183;28;20455;-63
2022/02/04 15:19:15;;;;;;;2.37;1.10;;;8.40;99.90;;;;;;5049517;28;20448;-63
2022/02/04 15:21:46;;;;;;;2.00;1.20;;;8.40;99.90;;;;;;5046929;28;20497;-63
2022/02/04 15:24:13;;;;;;;2.30;1.43;;;8.40;99.90;;;;;;5045255;28;20484;-64
2022/02/04 15:26:40;;;;;;;2.20;1.00;;;8.40;99.90;;;;;;5034278;28;21128;-63
2022/02/04 15:29:10;;;;;;;2.43;1.30;;;8.40;99.90;;;;;;5031894;28;20974;-63
2022/02/04 15:31:42;;;;;;;1.93;1.00;;;8.40;99.90;;;;;;5037709;28;20460;-64
2022/02/04 15:34:12;;;;;;;1.87;0.90;;;8.40;99.90;;;;;;5047316;28;20486;-64
2022/02/04 15:36:42;;;;;;;2.90;0.90;;;8.40;99.90;;;;;;5042489;28;20507;-64
2022/02/04 15:39:11;;;;;;;1.83;0.80;;;8.40;99.90;;;;;;5049683;28;20990;-64
2022/02/04 15:41:39;;;;;;;2.43;0.80;;;8.40;99.90;;;;;;5046989;28;20474;-64
2022/02/04 15:44:13;;;;;;;2.00;1.00;;;8.40;99.90;;;;;;5043414;28;20588;-64
2022/02/04 15:46:48;;;;;;;2.57;0.90;;;8.40;99.90;;;;;;5030432;28;20448;-64
2022/02/04 15:52:38;;;;;;;1.90;1.07;;;8.40;99.90;;;;;;5035919;28;21146;-64
2022/02/04 15:58:28;;;;;;;1.70;0.83;;;8.30;99.90;;;;;;4986295;28;20801;-65
2022/02/04 16:01:07;;;;;;;1.80;0.70;;;8.30;99.90;;;;;;5043846;28;20448;-63
2022/02/04 16:03:51;;;;;;;4.10;1.07;;;8.30;99.90;;;;;;5049948;28;21057;-65
2022/02/04 16:06:21;;;;;;;1.90;0.90;;;8.30;99.90;;;;;;5049956;28;20524;-63
2022/02/04 16:08:51;;;;;;;1.80;0.90;;;8.30;99.90;;;;;;5049816;28;20735;-63
2022/02/04 16:11:31;;;;;;;1.90;0.87;;;8.30;99.90;;;;;;5048354;28;20471;-63
2022/02/04 16:14:07;;;;;;;1.67;0.80;;;8.30;99.90;;;;;;5045577;28;20476;-63
2022/02/04 16:16:39;;;;;;;1.97;1.03;;;8.20;99.90;;;;;;5045921;28;20517;-63
2022/02/04 16:19:10;;;;;;;2.30;1.00;;;8.20;99.90;;;;;;5044473;28;20581;-63
2022/02/04 16:21:45;;;;;;;6.20;1.27;;;8.20;99.90;;;;;;5037262;28;20451;-63
2022/02/04 16:24:37;;;;;;;2.00;1.00;;;8.20;99.90;;;;;;5048870;28;20621;-63
2022/02/04 16:29:51;;;;;;;2.63;1.20;;;8.20;99.90;;;;;;5022637;28;20490;-64
2022/02/04 16:32:18;;;;;;;2.43;1.30;;;8.20;99.90;;;;;;5048896;28;20442;-65
2022/02/04 16:34:52;;;;;;;3.90;1.40;;;8.20;99.90;;;;;;5048775;28;20476;-63
2022/02/04 16:37:28;;;;;;;2.47;1.37;;;8.20;99.90;;;;;;5049031;28;20468;-63
2022/02/04 16:39:55;;;;;;;2.30;1.00;;;8.10;99.90;;;;;;5048650;28;20456;-63
2022/02/04 16:42:22;;;;;;;2.77;1.20;;;8.10;99.90;;;;;;5048393;28;20554;-63
2022/02/04 16:44:49;;;;;;;2.80;1.37;;;8.10;99.90;;;;;;5047720;28;20487;-64
2022/02/04 16:47:16;;;;;;;2.37;1.23;;;8.10;99.90;;;;;;5043167;28;20452;-63
2022/02/04 16:49:43;;;;;;;2.90;1.70;;;8.10;99.90;;;;;;5047783;28;20452;-63
2022/02/04 16:52:10;;;;;;;2.50;1.40;;;8.10;99.90;;;;;;5047604;28;20452;-63
2022/02/04 16:54:39;;;;;;;2.80;1.30;;;8.10;99.90;;;;;;5048561;28;20853;-63
2022/02/04 16:57:06;;;;;;;4.57;2.00;;;8.10;99.90;;;;;;5029770;28;20547;-63
2022/02/04 16:59:34;;;;;;;2.40;1.10;;;8.10;99.90;;;;;;5045750;28;20470;-63
2022/02/04 17:02:01;;;;;;;3.97;1.83;;;8.10;99.90;;;;;;5048806;28;20544;-63
2022/02/04 17:04:28;;;;;;;2.57;1.43;;;8.10;99.90;;;;;;5049564;28;20518;-63
2022/02/04 17:07:00;;;;;;;2.50;1.33;;;8.10;99.90;;;;;;5049284;28;20444;-63
2022/02/04 17:09:31;;;;;;;4.57;1.60;;;8.10;99.90;;;;;;5047406;28;20462;-63
2022/02/04 17:12:05;;;;;;;2.30;1.10;;;8.20;99.90;;;;;;5047294;28;20444;-63
2022/02/04 17:14:34;;;;;;;2.40;1.20;;;8.20;99.90;;;;;;5041667;28;20478;-63
2022/02/04 17:17:02;;;;;;;2.77;0.93;;;8.20;99.90;;;;;;5040891;28;20498;-63
2022/02/04 17:19:35;;;;;;;2.83;1.37;;;8.20;99.90;;;;;;5039173;28;20479;-63
2022/02/04 17:22:04;;;;;;;2.87;1.33;;;8.20;99.90;;;;;;5044438;28;20444;-64
2022/02/04 17:24:31;;;;;;;1.80;0.90;;;8.20;99.90;;;;;;5040836;28;20464;-64
2022/02/04 17:26:59;;;;;;;1.90;1.20;;;8.20;99.90;;;;;;5037764;28;20541;-64
2022/02/04 17:29:28;;;;;;;2.37;1.40;;;8.20;99.90;;;;;;5039574;28;20459;-64
2022/02/04 17:31:55;;;;;;;3.10;1.10;;;8.10;99.90;;;;;;5045540;28;20493;-64
2022/02/04 17:34:22;;;;;;;3.80;1.33;;;8.10;99.90;;;;;;5047505;28;20464;-63
2022/02/04 17:36:49;;;;;;;2.10;0.93;;;8.10;99.90;;;;;;5047788;28;20546;-63